Terminal Aerodrome Forecast
Issued by NWS

Home | Current Version | Previous Version | Graphics & Text | Print | Product List | Glossary On
Versions: 1 2 3 4 5 6 7 8 9 10 11 12 13 14 15 16 17 18 19
000
FTUS43 KGRB 212234 AAA
TAFATW
TAF AMD
KATW 212234Z 2123/2218 24011KT P6SM SCT040 SCT120
      TEMPO 2123/2124 4SM -TSRA BKN040CB
     FM220600 27004KT 4SM BR SCT007 SCT120
      TEMPO 2206/2210 1SM BR SCT004 SCT120
     FM221000 32004KT 5SM BR SCT150
     FM221300 32004KT P6SM SCT150=

USA.gov is the U.S. government's official web portal to all federal, state and local government web resources and services.